Time;durP1;ratioP1;P1;durP2;ratioP2;P2;SDS_P1;SDS_P2;PMS_P1;PMS_P2;Temp;Humidity;BMP_temperature;BMP_pressure;BME280_temperature;BME280_humidity;BME280_pressure;Samples;Min_cycle;Max_cycle;Signal;HPM_P1;HPM_P2
2021/12/29 00:00:57;;;;;;;21.40;6.45;;;6.80;99.90;;;;;;5017213;28;20160;-73
2021/12/29 00:03:23;;;;;;;22.05;6.80;;;6.90;99.90;;;;;;5016787;28;20049;-72
2021/12/29 00:05:49;;;;;;;18.10;6.95;;;6.80;99.90;;;;;;5033359;28;20409;-72
2021/12/29 00:08:14;;;;;;;18.02;6.15;;;6.80;99.90;;;;;;5017567;28;20045;-72
2021/12/29 00:10:40;;;;;;;18.38;6.65;;;6.80;99.90;;;;;;5017002;28;20061;-74
2021/12/29 00:13:06;;;;;;;16.00;5.53;;;6.70;99.90;;;;;;5016860;28;20085;-74
2021/12/29 00:15:32;;;;;;;18.15;5.97;;;6.70;99.90;;;;;;5016384;28;20053;-73
2021/12/29 00:17:58;;;;;;;14.23;6.05;;;6.70;99.90;;;;;;5016057;28;20115;-73
2021/12/29 00:20:28;;;;;;;13.30;5.00;;;6.80;99.90;;;;;;5017361;28;20045;-73
2021/12/29 00:23:04;;;;;;;14.55;5.95;;;6.70;99.90;;;;;;5016905;28;20046;-74
2021/12/29 00:25:31;;;;;;;16.70;5.53;;;6.70;99.90;;;;;;5017337;28;20049;-76
2021/12/29 00:27:59;;;;;;;17.42;5.78;;;6.70;99.90;;;;;;5000811;28;20410;-73
2021/12/29 00:30:26;;;;;;;14.80;5.30;;;6.70;99.90;;;;;;5016719;28;20046;-72
2021/12/29 00:32:51;;;;;;;17.67;5.60;;;6.70;99.90;;;;;;4998976;28;20049;-74
2021/12/29 00:35:17;;;;;;;17.65;5.57;;;6.80;99.90;;;;;;5001466;28;20481;-72
2021/12/29 00:37:43;;;;;;;15.57;5.20;;;6.70;99.90;;;;;;5033050;28;20087;-73
2021/12/29 00:40:10;;;;;;;15.73;5.60;;;6.80;99.90;;;;;;5029473;28;20136;-73
2021/12/29 00:42:37;;;;;;;15.68;5.20;;;6.70;99.90;;;;;;5035773;28;20057;-73
2021/12/29 00:45:04;;;;;;;14.57;5.40;;;6.70;99.90;;;;;;5036724;28;20087;-72
2021/12/29 00:47:32;;;;;;;16.25;5.32;;;6.70;99.90;;;;;;5019598;28;20059;-71
2021/12/29 00:49:59;;;;;;;13.88;5.50;;;6.70;99.90;;;;;;5036820;28;20061;-74
2021/12/29 00:52:25;;;;;;;23.95;6.30;;;6.80;99.90;;;;;;5036167;28;20048;-72
2021/12/29 00:54:50;;;;;;;19.20;6.07;;;6.80;99.90;;;;;;5036698;28;20405;-73
2021/12/29 00:57:16;;;;;;;14.60;5.50;;;6.80;99.90;;;;;;5022441;28;20140;-73
2021/12/29 00:59:41;;;;;;;22.98;6.00;;;6.90;99.90;;;;;;5033281;28;20076;-73
2021/12/29 01:02:07;;;;;;;23.15;6.95;;;6.80;99.90;;;;;;4999753;28;20049;-74
2021/12/29 01:04:34;;;;;;;26.45;7.57;;;6.80;99.90;;;;;;5016637;28;20041;-73
2021/12/29 01:07:00;;;;;;;29.80;7.15;;;6.80;99.90;;;;;;5016553;28;20072;-72
2021/12/29 01:09:25;;;;;;;34.45;8.48;;;6.80;99.90;;;;;;5023118;28;20485;-73
2021/12/29 01:11:55;;;;;;;28.50;8.07;;;6.80;99.90;;;;;;5035161;28;20048;-73
2021/12/29 01:14:22;;;;;;;30.13;8.80;;;6.80;99.90;;;;;;5019795;28;20045;-73
2021/12/29 01:16:49;;;;;;;33.53;9.65;;;6.80;99.90;;;;;;5019070;28;20049;-74
2021/12/29 01:19:18;;;;;;;44.30;10.70;;;6.90;99.90;;;;;;5035716;28;20085;-73
2021/12/29 01:21:48;;;;;;;44.58;10.13;;;6.90;99.90;;;;;;5019110;28;20489;-76
2021/12/29 01:24:15;;;;;;;46.30;10.65;;;6.90;99.90;;;;;;5018905;28;20041;-75
2021/12/29 01:26:43;;;;;;;52.28;10.52;;;6.90;99.90;;;;;;5035551;28;20049;-73
2021/12/29 01:29:10;;;;;;;51.10;10.70;;;6.90;99.90;;;;;;5035960;28;20068;-72
2021/12/29 01:31:35;;;;;;;51.30;10.63;;;6.90;99.90;;;;;;5018863;28;20048;-74
2021/12/29 01:34:04;;;;;;;49.63;10.45;;;6.90;99.90;;;;;;5035996;28;20048;-72
2021/12/29 01:36:34;;;;;;;54.10;11.45;;;6.90;99.90;;;;;;5035260;28;20064;-73
2021/12/29 01:39:01;;;;;;;75.72;12.95;;;6.90;99.90;;;;;;5031565;28;20057;-75
2021/12/29 01:41:26;;;;;;;54.80;11.98;;;6.90;99.90;;;;;;5015510;28;20112;-75
2021/12/29 01:43:52;;;;;;;86.13;14.20;;;6.90;99.90;;;;;;5015840;28;20478;-75
2021/12/29 01:46:19;;;;;;;70.68;12.50;;;6.90;99.90;;;;;;5014664;28;20080;-74
2021/12/29 01:48:45;;;;;;;72.80;12.95;;;6.90;99.90;;;;;;5015873;28;20037;-75
2021/12/29 01:51:12;;;;;;;70.20;12.90;;;6.90;99.90;;;;;;5015171;28;20053;-73
2021/12/29 01:53:47;;;;;;;78.47;13.25;;;6.90;99.90;;;;;;5014707;28;20501;-75
2021/12/29 01:56:13;;;;;;;84.00;13.65;;;6.90;99.90;;;;;;5014619;28;20100;-74
2021/12/29 01:58:40;;;;;;;85.57;14.38;;;6.90;99.90;;;;;;5015657;28;20060;-74
2021/12/29 02:01:05;;;;;;;83.32;14.80;;;7.00;99.90;;;;;;5014264;28;20571;-73
2021/12/29 02:03:31;;;;;;;90.10;15.05;;;7.00;99.90;;;;;;5014990;28;20124;-73
2021/12/29 02:05:57;;;;;;;116.10;15.43;;;7.00;99.90;;;;;;5015040;28;20058;-73
2021/12/29 02:08:24;;;;;;;94.10;13.35;;;7.00;99.90;;;;;;5015525;28;20049;-73
2021/12/29 02:10:52;;;;;;;99.05;13.63;;;7.00;99.90;;;;;;5016024;28;20053;-74
2021/12/29 02:13:18;;;;;;;75.45;12.52;;;7.00;99.90;;;;;;5015510;28;20434;-74
2021/12/29 02:15:44;;;;;;;72.45;11.98;;;6.90;99.90;;;;;;5014505;28;20081;-72
2021/12/29 02:18:15;;;;;;;81.68;12.57;;;6.90;99.90;;;;;;5014990;28;20081;-73
2021/12/29 02:20:46;;;;;;;75.78;11.55;;;6.90;99.90;;;;;;5015302;28;20128;-74
2021/12/29 02:23:19;;;;;;;84.43;11.30;;;6.90;99.90;;;;;;5015110;28;20053;-74
2021/12/29 02:25:53;;;;;;;72.10;11.18;;;7.00;99.90;;;;;;5014412;28;20049;-73
2021/12/29 02:28:32;;;;;;;76.28;10.88;;;7.00;99.90;;;;;;5015207;28;20057;-73
2021/12/29 02:30:59;;;;;;;55.78;10.00;;;7.00;99.90;;;;;;5014308;28;20694;-73
2021/12/29 02:33:25;;;;;;;76.47;10.13;;;7.00;99.90;;;;;;5013633;28;20037;-73
2021/12/29 02:35:51;;;;;;;64.72;10.32;;;7.00;99.90;;;;;;5032260;28;20098;-74
2021/12/29 02:38:42;;;;;;;75.10;10.75;;;7.00;99.90;;;;;;5015163;28;20169;-74
2021/12/29 02:41:08;;;;;;;72.30;10.95;;;7.00;99.90;;;;;;5019184;28;20521;-74
2021/12/29 02:43:37;;;;;;;74.38;11.65;;;7.10;99.90;;;;;;5014864;28;20046;-74
2021/12/29 02:46:11;;;;;;;49.67;10.23;;;7.10;99.90;;;;;;5014369;28;20038;-72
2021/12/29 02:48:40;;;;;;;52.67;9.30;;;7.00;99.90;;;;;;5014616;28;20042;-73
2021/12/29 02:51:08;;;;;;;53.10;10.23;;;7.00;99.90;;;;;;5038942;28;20091;-74
2021/12/29 02:53:35;;;;;;;42.03;8.80;;;7.10;99.90;;;;;;5033916;28;20050;-74
2021/12/29 02:56:02;;;;;;;36.22;9.15;;;7.00;99.90;;;;;;5014863;28;20042;-74
2021/12/29 02:58:35;;;;;;;40.33;9.07;;;7.10;99.90;;;;;;5032695;28;20135;-73
2021/12/29 03:01:03;;;;;;;38.70;9.85;;;7.10;99.90;;;;;;5034423;28;20053;-75
2021/12/29 03:03:30;;;;;;;41.47;9.82;;;7.10;99.90;;;;;;5034596;28;20064;-73
2021/12/29 03:05:56;;;;;;;49.67;10.38;;;7.10;99.90;;;;;;5017690;28;20051;-73
2021/12/29 03:08:22;;;;;;;37.05;10.55;;;7.20;99.90;;;;;;5033976;28;20485;-74
2021/12/29 03:10:52;;;;;;;45.83;10.40;;;7.10;99.90;;;;;;5038296;28;20278;-73
2021/12/29 03:13:23;;;;;;;47.88;11.80;;;7.20;99.90;;;;;;5038655;28;20517;-74
2021/12/29 03:15:48;;;;;;;45.83;11.60;;;7.20;99.90;;;;;;5037648;28;20477;-75
2021/12/29 03:18:15;;;;;;;38.50;11.75;;;7.20;99.90;;;;;;5038215;28;20064;-74
2021/12/29 03:20:41;;;;;;;46.38;12.20;;;7.20;99.90;;;;;;5019773;28;20056;-74
2021/12/29 03:23:07;;;;;;;49.75;12.57;;;7.60;99.90;;;;;;5034933;28;20131;-73
2021/12/29 03:25:32;;;;;;;54.72;12.60;;;7.20;99.90;;;;;;5038230;28;20120;-73
2021/12/29 03:28:00;;;;;;;56.92;13.52;;;7.30;99.90;;;;;;5037536;28;20087;-73
2021/12/29 03:30:41;;;;;;;54.95;14.65;;;7.30;99.90;;;;;;5037887;28;20489;-75
2021/12/29 03:33:09;;;;;;;49.30;13.23;;;7.30;99.90;;;;;;5037091;28;20044;-73
2021/12/29 03:35:44;;;;;;;46.58;13.85;;;7.30;99.90;;;;;;5019502;28;20045;-74
2021/12/29 03:38:13;;;;;;;54.75;14.32;;;7.30;99.90;;;;;;5018202;28;20064;-75
2021/12/29 03:40:41;;;;;;;47.53;14.32;;;7.30;99.90;;;;;;5017561;28;20107;-73
2021/12/29 03:43:08;;;;;;;42.20;13.63;;;7.30;99.90;;;;;;5017663;28;20041;-74
2021/12/29 03:45:37;;;;;;;51.60;15.82;;;7.30;99.90;;;;;;5017737;28;20049;-75
2021/12/29 03:48:06;;;;;;;52.13;14.38;;;7.30;99.90;;;;;;5016887;28;20120;-74
2021/12/29 03:50:32;;;;;;;58.20;15.52;;;7.30;99.90;;;;;;5029441;28;20096;-73
2021/12/29 03:52:58;;;;;;;50.75;15.07;;;7.40;99.90;;;;;;5012883;28;20081;-73
2021/12/29 03:55:24;;;;;;;60.65;15.43;;;7.30;99.90;;;;;;5001484;28;20049;-73
2021/12/29 03:57:49;;;;;;;52.15;15.57;;;7.40;99.90;;;;;;5006970;28;20100;-74
2021/12/29 04:00:18;;;;;;;47.58;14.45;;;7.30;99.90;;;;;;4998652;28;20057;-72
2021/12/29 04:02:44;;;;;;;49.22;14.98;;;7.40;99.90;;;;;;4997104;28;20070;-75
2021/12/29 04:05:13;;;;;;;53.08;15.18;;;7.40;99.90;;;;;;4997764;28;20046;-74
2021/12/29 04:07:39;;;;;;;46.50;15.25;;;7.40;99.90;;;;;;4997792;28;20402;-73
2021/12/29 04:10:07;;;;;;;49.10;14.93;;;7.40;99.90;;;;;;5032090;28;20219;-74
2021/12/29 04:12:33;;;;;;;53.13;15.93;;;7.40;99.90;;;;;;5008360;28;20053;-73
2021/12/29 04:14:59;;;;;;;53.00;16.00;;;7.40;99.90;;;;;;5017455;28;20049;-73
2021/12/29 04:17:29;;;;;;;44.40;15.77;;;7.40;99.90;;;;;;5000554;28;20053;-73
2021/12/29 04:22:40;;;;;;;42.97;14.98;;;7.40;99.90;;;;;;5016866;28;20053;-74
2021/12/29 04:25:07;;;;;;;42.85;15.27;;;7.40;99.90;;;;;;5017260;28;20055;-73
2021/12/29 04:27:33;;;;;;;47.35;15.90;;;7.40;99.90;;;;;;5004784;28;20048;-76
2021/12/29 04:29:58;;;;;;;43.85;15.57;;;7.40;99.90;;;;;;4996964;28;20050;-74
2021/12/29 04:32:24;;;;;;;45.40;15.23;;;7.40;99.90;;;;;;4980665;28;20081;-75
2021/12/29 04:34:50;;;;;;;48.67;16.92;;;7.40;99.90;;;;;;5014974;28;20046;-74
2021/12/29 04:37:15;;;;;;;47.22;16.50;;;7.40;99.90;;;;;;5016495;28;20489;-73
2021/12/29 04:39:41;;;;;;;43.35;14.35;;;7.40;99.90;;;;;;5026138;28;20420;-72
2021/12/29 04:42:07;;;;;;;48.13;15.65;;;7.40;99.90;;;;;;5020166;28;20091;-73
2021/12/29 04:44:32;;;;;;;43.58;15.02;;;7.40;99.90;;;;;;5036865;28;20049;-75
2021/12/29 04:46:58;;;;;;;45.70;14.50;;;7.40;99.90;;;;;;5035943;28;20485;-74
2021/12/29 04:49:28;;;;;;;41.70;14.35;;;7.50;99.90;;;;;;5035758;28;20040;-74
2021/12/29 04:52:02;;;;;;;37.25;14.27;;;7.40;99.90;;;;;;5036260;28;20451;-75
2021/12/29 04:54:29;;;;;;;40.28;15.00;;;7.40;99.90;;;;;;5036552;28;20056;-72
2021/12/29 04:56:55;;;;;;;37.65;13.43;;;7.50;99.90;;;;;;5035548;28;20072;-73
2021/12/29 04:59:24;;;;;;;36.25;14.43;;;7.50;99.90;;;;;;5053124;28;20053;-74
2021/12/29 05:01:50;;;;;;;38.75;14.02;;;7.50;99.90;;;;;;5035452;28;20041;-72
2021/12/29 05:04:21;;;;;;;41.67;13.68;;;7.50;99.90;;;;;;5036441;28;20122;-74
2021/12/29 05:09:32;;;;;;;39.30;13.38;;;7.40;99.90;;;;;;5036329;28;20060;-75
2021/12/29 05:12:01;;;;;;;42.47;14.30;;;7.40;99.90;;;;;;5035226;28;20473;-73
2021/12/29 05:14:28;;;;;;;45.67;14.50;;;7.40;99.90;;;;;;5035739;28;20395;-74
2021/12/29 05:16:53;;;;;;;46.42;15.20;;;7.40;99.90;;;;;;5035433;28;20127;-76
2021/12/29 05:19:19;;;;;;;45.80;13.82;;;7.40;99.90;;;;;;5035903;28;20541;-74
2021/12/29 05:21:45;;;;;;;36.58;14.00;;;7.40;99.90;;;;;;5035259;28;20041;-75
2021/12/29 05:24:10;;;;;;;42.15;13.85;;;7.40;99.90;;;;;;5035490;28;20385;-74
2021/12/29 05:26:36;;;;;;;39.92;14.02;;;7.40;99.90;;;;;;5031135;28;20048;-74
2021/12/29 05:29:03;;;;;;;37.50;13.95;;;7.40;99.90;;;;;;5035356;28;20090;-75
2021/12/29 05:31:28;;;;;;;39.25;14.18;;;7.40;99.90;;;;;;5034983;28;20549;-73
2021/12/29 05:33:55;;;;;;;43.30;15.00;;;7.40;99.90;;;;;;5034732;28;20124;-72
2021/12/29 05:36:20;;;;;;;46.55;16.42;;;7.30;99.90;;;;;;5035133;28;20045;-74
2021/12/29 05:38:46;;;;;;;41.97;15.48;;;7.40;99.90;;;;;;5035260;28;20052;-74
2021/12/29 05:41:12;;;;;;;45.38;16.13;;;7.30;99.90;;;;;;5035079;28;20053;-73
2021/12/29 05:43:38;;;;;;;47.65;15.70;;;7.30;99.90;;;;;;5018877;28;20084;-74
2021/12/29 05:46:03;;;;;;;45.92;16.25;;;7.40;99.90;;;;;;5034453;28;20048;-72
2021/12/29 05:48:29;;;;;;;43.35;16.52;;;7.40;99.90;;;;;;5035095;28;20041;-74
2021/12/29 05:50:54;;;;;;;43.85;17.08;;;7.40;99.90;;;;;;5035469;28;20140;-73
2021/12/29 05:53:20;;;;;;;42.25;16.05;;;7.40;99.90;;;;;;5035421;28;20504;-73
2021/12/29 05:55:46;;;;;;;43.15;17.77;;;7.40;99.90;;;;;;5014916;28;20060;-75
2021/12/29 05:58:12;;;;;;;42.72;15.65;;;7.40;99.90;;;;;;5015773;28;20406;-73
2021/12/29 06:00:40;;;;;;;40.20;16.55;;;7.30;99.90;;;;;;5030576;28;20041;-73
2021/12/29 06:03:06;;;;;;;48.38;16.48;;;7.40;99.90;;;;;;5035187;28;20067;-75
2021/12/29 06:05:32;;;;;;;48.05;16.63;;;7.40;99.90;;;;;;5035831;28;20135;-75
2021/12/29 06:07:58;;;;;;;50.65;16.98;;;7.40;99.90;;;;;;5018370;28;20579;-74
2021/12/29 06:10:24;;;;;;;45.35;16.67;;;7.40;99.90;;;;;;5018642;28;20102;-73
2021/12/29 06:12:50;;;;;;;45.17;16.75;;;7.40;99.90;;;;;;5017590;28;20052;-74
2021/12/29 06:15:15;;;;;;;48.33;15.48;;;7.40;99.90;;;;;;5034426;28;20044;-73
2021/12/29 06:17:44;;;;;;;46.97;16.10;;;7.40;99.90;;;;;;5033238;28;20128;-74
2021/12/29 06:20:12;;;;;;;41.17;15.82;;;7.40;99.90;;;;;;5035902;28;20165;-75
2021/12/29 06:22:38;;;;;;;41.97;15.75;;;7.40;99.90;;;;;;5034741;28;20057;-74
2021/12/29 06:25:05;;;;;;;35.67;14.27;;;7.40;99.90;;;;;;5035213;28;20084;-75
2021/12/29 06:27:31;;;;;;;43.95;14.98;;;7.40;99.90;;;;;;5034001;28;20076;-73
2021/12/29 06:29:57;;;;;;;41.20;14.20;;;7.50;99.90;;;;;;5033849;28;20068;-73
2021/12/29 06:32:22;;;;;;;41.25;14.68;;;7.40;99.90;;;;;;5034783;28;20053;-72
2021/12/29 06:34:49;;;;;;;37.25;13.63;;;7.40;99.90;;;;;;5038036;28;20140;-73
2021/12/29 06:37:15;;;;;;;43.80;13.65;;;7.40;99.90;;;;;;5019345;28;20128;-72
2021/12/29 06:39:43;;;;;;;37.40;14.18;;;7.50;99.90;;;;;;5038571;28;20089;-73
2021/12/29 06:42:09;;;;;;;37.30;12.40;;;7.50;99.90;;;;;;5037121;28;20087;-74
2021/12/29 06:44:37;;;;;;;38.00;12.95;;;7.50;99.90;;;;;;5021844;28;20040;-73
2021/12/29 06:47:03;;;;;;;36.72;13.55;;;7.50;99.90;;;;;;5019626;28;20059;-73
2021/12/29 06:49:41;;;;;;;38.38;12.82;;;7.50;99.90;;;;;;5025961;28;20044;-73
2021/12/29 06:52:08;;;;;;;42.60;13.50;;;7.50;99.90;;;;;;5037016;28;20045;-74
2021/12/29 06:54:35;;;;;;;37.58;13.50;;;7.50;99.90;;;;;;5043495;28;20094;-76
2021/12/29 06:57:02;;;;;;;35.55;12.65;;;7.50;99.90;;;;;;5021177;28;20561;-74
2021/12/29 06:59:29;;;;;;;40.08;14.05;;;7.50;99.90;;;;;;5019709;28;20508;-74
2021/12/29 07:01:55;;;;;;;39.75;13.95;;;7.50;99.90;;;;;;5035295;28;20404;-73
2021/12/29 07:04:20;;;;;;;42.08;14.05;;;7.50;99.90;;;;;;5036599;28;20090;-76
2021/12/29 07:06:46;;;;;;;51.42;15.48;;;7.50;99.90;;;;;;5036399;28;20088;-74
2021/12/29 07:09:11;;;;;;;44.92;14.32;;;7.50;99.90;;;;;;5020386;28;20135;-74
2021/12/29 07:11:37;;;;;;;41.08;13.30;;;7.50;99.90;;;;;;5054159;28;20040;-74
2021/12/29 07:14:05;;;;;;;47.45;14.70;;;7.50;99.90;;;;;;5038060;28;20103;-73
2021/12/29 07:16:31;;;;;;;54.45;15.60;;;7.50;99.90;;;;;;5037063;28;20109;-73
2021/12/29 07:18:57;;;;;;;54.00;15.57;;;7.50;99.90;;;;;;5020405;28;20048;-73
2021/12/29 07:21:23;;;;;;;50.42;16.05;;;7.50;99.90;;;;;;5037940;28;20056;-76
2021/12/29 07:23:51;;;;;;;53.83;15.93;;;7.50;99.90;;;;;;5033164;28;20161;-73
2021/12/29 07:26:17;;;;;;;49.60;15.57;;;7.50;99.90;;;;;;5033974;28;20060;-75
2021/12/29 07:28:43;;;;;;;64.80;15.95;;;7.50;99.90;;;;;;5017869;28;20053;-74
2021/12/29 07:31:08;;;;;;;59.42;16.20;;;7.50;99.90;;;;;;5037172;28;20056;-74
2021/12/29 07:33:34;;;;;;;62.92;16.35;;;7.50;99.90;;;;;;5036519;28;20048;-73
2021/12/29 07:36:00;;;;;;;45.35;14.40;;;7.50;99.90;;;;;;5020655;28;20064;-75
2021/12/29 07:38:26;;;;;;;60.15;15.68;;;7.50;99.90;;;;;;5019231;28;20061;-76
2021/12/29 07:40:52;;;;;;;52.88;14.52;;;7.60;99.90;;;;;;5020031;28;20049;-74
2021/12/29 07:43:19;;;;;;;51.63;14.57;;;7.60;99.90;;;;;;5020194;28;20551;-73
2021/12/29 07:45:45;;;;;;;50.78;14.82;;;7.50;99.90;;;;;;5033612;28;20502;-74
2021/12/29 07:48:11;;;;;;;49.45;14.65;;;7.50;99.90;;;;;;5025157;28;20119;-74
2021/12/29 07:50:37;;;;;;;52.33;14.65;;;7.60;99.90;;;;;;5037850;28;20048;-74
2021/12/29 07:53:05;;;;;;;57.25;13.68;;;7.50;99.90;;;;;;5037712;28;20400;-73
2021/12/29 07:55:30;;;;;;;58.47;14.60;;;7.60;99.90;;;;;;5020897;28;20045;-75
2021/12/29 07:57:59;;;;;;;54.13;14.48;;;7.50;99.90;;;;;;5037349;28;20055;-74
2021/12/29 08:00:26;;;;;;;43.75;13.30;;;7.60;99.90;;;;;;5017896;28;20124;-73
2021/12/29 08:02:52;;;;;;;53.28;13.98;;;7.60;99.90;;;;;;5036253;28;20037;-73
2021/12/29 08:05:31;;;;;;;56.42;14.57;;;7.60;99.90;;;;;;5020345;28;20045;-73
2021/12/29 08:07:56;;;;;;;51.33;14.07;;;7.60;99.90;;;;;;5019250;28;20136;-75
2021/12/29 08:10:22;;;;;;;48.03;14.10;;;7.60;99.90;;;;;;5036318;28;20123;-75
2021/12/29 08:12:48;;;;;;;54.28;14.40;;;7.60;99.90;;;;;;5036824;28;20060;-74
2021/12/29 08:15:20;;;;;;;52.85;14.80;;;7.60;99.90;;;;;;5021375;28;20048;-76
2021/12/29 08:17:45;;;;;;;53.60;14.80;;;7.60;99.90;;;;;;5036367;28;20388;-73
2021/12/29 08:20:11;;;;;;;40.65;12.57;;;7.50;99.90;;;;;;5037162;28;20076;-73
2021/12/29 08:22:38;;;;;;;44.13;13.20;;;7.60;99.90;;;;;;5036786;28;20056;-73
2021/12/29 08:25:07;;;;;;;43.92;12.73;;;7.60;99.90;;;;;;5019962;28;20080;-73
2021/12/29 08:27:33;;;;;;;48.53;13.68;;;7.60;99.90;;;;;;5036845;28;20045;-71
2021/12/29 08:29:59;;;;;;;48.63;13.45;;;7.60;99.90;;;;;;5036546;28;20116;-73
2021/12/29 08:32:28;;;;;;;45.20;13.45;;;7.60;99.90;;;;;;5036375;28;20045;-75
2021/12/29 08:34:53;;;;;;;51.05;12.85;;;7.60;99.90;;;;;;5036904;28;20041;-75
2021/12/29 08:37:19;;;;;;;47.33;13.70;;;7.60;99.90;;;;;;5036725;28;20068;-76
2021/12/29 08:39:45;;;;;;;56.30;14.27;;;7.60;99.90;;;;;;5035256;28;20412;-74
2021/12/29 08:42:12;;;;;;;53.13;14.02;;;7.60;99.90;;;;;;5037112;28;20179;-76
2021/12/29 08:44:37;;;;;;;53.60;13.32;;;7.60;99.90;;;;;;5036212;28;20055;-75
2021/12/29 08:47:04;;;;;;;57.35;14.10;;;7.60;99.90;;;;;;5036455;28;20049;-76
2021/12/29 08:49:32;;;;;;;50.20;13.45;;;7.60;99.90;;;;;;5019604;28;20052;-73
2021/12/29 08:51:58;;;;;;;57.75;14.15;;;7.70;99.90;;;;;;5036488;28;20152;-74
2021/12/29 08:54:24;;;;;;;55.53;12.90;;;7.60;99.90;;;;;;5019805;28;20190;-73
2021/12/29 08:56:54;;;;;;;56.88;14.00;;;7.60;99.90;;;;;;5034976;28;20049;-76
2021/12/29 08:59:21;;;;;;;71.18;14.43;;;7.60;99.90;;;;;;5018965;28;20045;-72
2021/12/29 09:01:50;;;;;;;60.00;14.95;;;7.60;99.90;;;;;;5051522;28;20413;-75
2021/12/29 09:04:16;;;;;;;64.57;13.93;;;7.70;99.90;;;;;;5035848;28;20053;-74
2021/12/29 09:06:43;;;;;;;88.07;15.43;;;7.60;99.90;;;;;;5019250;28;20053;-75
2021/12/29 09:09:09;;;;;;;68.30;15.10;;;7.70;99.90;;;;;;5030908;28;20119;-77
2021/12/29 09:11:36;;;;;;;60.67;12.32;;;7.70;99.90;;;;;;5018677;28;20504;-74
2021/12/29 09:14:02;;;;;;;66.00;13.38;;;7.70;99.90;;;;;;5019213;28;20505;-72
2021/12/29 09:16:29;;;;;;;86.13;14.15;;;7.70;99.90;;;;;;5033983;28;20217;-74
2021/12/29 09:18:55;;;;;;;93.50;14.90;;;7.70;99.90;;;;;;5030238;28;20037;-73
2021/12/29 09:21:53;;;;;;;66.40;13.90;;;7.70;99.90;;;;;;5037306;28;20067;-74
2021/12/29 09:24:31;;;;;;;78.47;14.00;;;7.70;99.90;;;;;;5017153;28;20037;-73
2021/12/29 09:26:56;;;;;;;89.72;15.05;;;7.80;99.90;;;;;;5035209;28;20045;-74
2021/12/29 09:29:26;;;;;;;58.08;12.35;;;7.80;99.90;;;;;;5035480;28;20048;-72
2021/12/29 09:31:54;;;;;;;50.15;11.60;;;7.80;99.90;;;;;;5017032;28;20037;-73
2021/12/29 09:34:20;;;;;;;66.07;13.52;;;7.90;99.90;;;;;;5015624;28;20052;-73
2021/12/29 09:36:46;;;;;;;46.70;10.70;;;7.80;99.90;;;;;;5028431;28;20045;-75
2021/12/29 09:39:32;;;;;;;53.45;11.75;;;7.80;99.90;;;;;;5026030;28;20065;-74
2021/12/29 09:41:58;;;;;;;49.08;11.02;;;7.80;99.90;;;;;;5044909;28;20213;-74
2021/12/29 09:44:47;;;;;;;47.70;11.73;;;7.80;99.90;;;;;;5034991;28;20048;-73
2021/12/29 09:47:13;;;;;;;31.02;9.50;;;7.90;99.90;;;;;;5034449;28;20056;-73
2021/12/29 09:49:39;;;;;;;37.67;10.18;;;7.90;99.90;;;;;;5016866;28;20052;-74
2021/12/29 09:52:05;;;;;;;23.65;8.65;;;7.90;99.90;;;;;;5027081;28;20041;-75
2021/12/29 09:54:33;;;;;;;28.08;8.65;;;8.00;99.90;;;;;;5034281;28;20432;-73
2021/12/29 09:57:00;;;;;;;37.15;12.93;;;8.00;99.90;;;;;;5034931;28;20055;-71
2021/12/29 09:59:26;;;;;;;28.50;10.38;;;8.00;99.90;;;;;;5051279;28;20045;-74
2021/12/29 10:01:57;;;;;;;39.38;16.52;;;8.00;99.90;;;;;;5035230;28;20136;-74
2021/12/29 10:04:25;;;;;;;23.85;7.20;;;8.00;99.90;;;;;;5018698;28;20071;-73
2021/12/29 10:06:51;;;;;;;21.50;8.57;;;8.10;99.90;;;;;;5034705;28;20511;-72
2021/12/29 10:09:18;;;;;;;33.38;12.40;;;8.10;99.90;;;;;;5034107;28;20037;-73
2021/12/29 10:12:27;;;;;;;20.08;7.85;;;8.10;99.90;;;;;;5034873;28;20088;-72
2021/12/29 10:15:04;;;;;;;24.50;8.63;;;8.10;99.90;;;;;;5034801;28;20401;-72
2021/12/29 10:21:02;;;;;;;29.05;9.20;;;8.80;99.90;;;;;;5033930;28;20045;-72
2021/12/29 10:23:44;;;;;;;24.67;8.98;;;8.30;99.90;;;;;;5019019;28;20044;-72
2021/12/29 10:29:21;;;;;;;28.52;9.77;;;8.60;99.90;;;;;;5001772;28;20057;-72
2021/12/29 10:32:03;;;;;;;30.38;9.55;;;8.30;99.90;;;;;;5017660;28;20132;-72
2021/12/29 10:34:36;;;;;;;23.45;9.15;;;8.30;99.90;;;;;;5033060;28;20497;-73
2021/12/29 10:37:11;;;;;;;24.77;9.02;;;8.30;99.90;;;;;;5033487;28;20037;-72
2021/12/29 10:39:47;;;;;;;20.05;9.52;;;8.10;99.90;;;;;;5032830;28;20055;-72
2021/12/29 10:42:12;;;;;;;25.58;9.15;;;8.40;99.90;;;;;;5049248;28;20036;-73
2021/12/29 10:44:43;;;;;;;23.40;9.90;;;8.30;99.90;;;;;;5034505;28;20485;-72
2021/12/29 10:47:31;;;;;;;28.27;11.23;;;8.50;99.90;;;;;;5034055;28;20149;-72
2021/12/29 10:50:00;;;;;;;21.10;10.05;;;8.40;99.90;;;;;;5017031;28;20048;-72
2021/12/29 10:52:39;;;;;;;23.63;10.15;;;8.30;99.90;;;;;;5033938;28;20100;-72
2021/12/29 10:55:32;;;;;;;;;;;;;;;;;;;;;
2021/12/29 10:58:14;;;;;;;26.92;9.55;;;8.30;99.90;;;;;;5024709;28;20370;-72
2021/12/29 11:00:42;;;;;;;25.58;9.65;;;8.60;99.90;;;;;;5034353;28;20111;-72
2021/12/29 11:03:26;;;;;;;21.48;8.75;;;8.30;99.90;;;;;;5034177;28;20115;-72
2021/12/29 11:06:01;;;;;;;29.20;9.25;;;8.40;99.90;;;;;;5033737;28;20056;-72
2021/12/29 11:11:56;;;;;;;19.70;8.25;;;8.40;99.90;;;;;;5033550;28;20045;-72
2021/12/29 11:14:55;;;;;;;27.50;7.68;;;8.70;99.90;;;;;;5030430;28;20060;-73
2021/12/29 11:17:25;;;;;;;28.63;8.05;;;8.40;99.90;;;;;;5012725;28;20091;-71
2021/12/29 11:23:41;;;;;;;27.17;8.52;;;8.60;99.90;;;;;;5054075;28;20224;-72
2021/12/29 11:26:11;;;;;;;27.13;8.27;;;8.60;99.90;;;;;;5053650;28;20045;-71
2021/12/29 11:29:06;;;;;;;30.58;8.65;;;8.70;99.90;;;;;;5036071;28;20057;-72
2021/12/29 11:31:37;;;;;;;23.80;8.73;;;8.70;99.90;;;;;;5017244;28;20509;-72
2021/12/29 11:37:41;;;;;;;22.38;8.40;;;8.90;99.90;;;;;;5039705;28;20049;-71
2021/12/29 11:40:11;;;;;;;26.08;8.65;;;8.90;99.90;;;;;;5028732;28;20049;-72
2021/12/29 11:42:36;;;;;;;27.55;8.98;;;9.00;99.90;;;;;;5036934;28;20084;-72
2021/12/29 11:45:22;;;;;;;30.50;9.80;;;9.00;99.90;;;;;;5008813;28;20072;-72
2021/12/29 11:47:51;;;;;;;24.85;8.02;;;8.90;99.90;;;;;;5020075;28;20406;-72
2021/12/29 11:50:35;;;;;;;23.27;7.20;;;9.40;99.90;;;;;;5020118;28;20515;-72
2021/12/29 11:53:23;;;;;;;20.20;6.57;;;9.50;99.90;;;;;;5018622;28;20049;-72
2021/12/29 11:55:59;;;;;;;20.65;7.43;;;8.80;99.90;;;;;;5027168;28;20041;-72
2021/12/29 11:58:33;;;;;;;24.17;6.95;;;8.80;99.90;;;;;;5036886;28;20092;-72
2021/12/29 12:01:16;;;;;;;22.85;6.22;;;8.70;99.90;;;;;;5035646;28;20052;-72
2021/12/29 12:03:57;;;;;;;16.23;6.57;;;8.80;99.90;;;;;;5028355;28;20373;-72
2021/12/29 12:06:39;;;;;;;26.52;7.47;;;8.70;99.90;;;;;;5036827;28;20059;-72
2021/12/29 12:09:10;;;;;;;19.17;5.72;;;8.80;99.90;;;;;;5020607;28;20052;-72
2021/12/29 12:11:48;;;;;;;15.70;6.45;;;8.70;99.90;;;;;;5020679;28;20053;-71
2021/12/29 12:14:27;;;;;;;17.42;7.13;;;8.70;99.90;;;;;;5018441;28;20041;-72
2021/12/29 12:17:39;;;;;;;27.17;8.63;;;9.20;99.90;;;;;;5015674;28;20040;-72
2021/12/29 12:20:20;;;;;;;23.67;8.45;;;8.70;99.90;;;;;;5037679;28;20056;-72
2021/12/29 12:22:55;;;;;;;19.95;7.90;;;8.60;99.90;;;;;;5022498;28;20049;-72
2021/12/29 12:25:51;;;;;;;20.38;9.27;;;8.70;99.90;;;;;;5020647;28;20053;-71
2021/12/29 12:32:20;;;;;;;27.95;11.05;;;8.60;99.90;;;;;;5016515;28;20136;-71
2021/12/29 12:34:57;;;;;;;21.15;11.48;;;8.10;99.90;;;;;;5017029;28;20048;-71
2021/12/29 12:37:45;;;;;;;17.05;10.05;;;8.70;99.90;;;;;;5027186;28;21070;-71
2021/12/29 12:40:40;;;;;;;20.13;11.07;;;8.50;99.90;;;;;;5019797;28;20162;-72
2021/12/29 12:46:02;;;;;;;24.85;10.80;;;8.50;99.90;;;;;;5035748;28;20107;-71
2021/12/29 12:49:37;;;;;;;19.63;10.00;;;8.80;99.90;;;;;;5019612;28;20213;-72
2021/12/29 12:52:09;;;;;;;20.33;10.10;;;8.90;99.90;;;;;;5053576;28;20055;-71
2021/12/29 12:58:18;;;;;;;26.70;10.00;;;8.50;99.90;;;;;;5026780;28;20098;-70
2021/12/29 13:00:52;;;;;;;19.60;9.52;;;;;;;;;;4999485;28;20052;-71
2021/12/29 13:09:33;;;;;;;25.45;11.15;;;8.50;99.90;;;;;;5035674;28;20041;-70
2021/12/29 13:12:11;;;;;;;23.50;9.45;;;8.40;99.90;;;;;;5036120;28;20041;-71
2021/12/29 13:14:45;;;;;;;32.67;15.30;;;8.50;99.90;;;;;;5017954;28;20041;-71
2021/12/29 13:17:18;;;;;;;27.42;10.02;;;7.70;99.90;;;;;;5018836;28;20611;-71
2021/12/29 13:19:55;;;;;;;28.13;9.60;;;8.40;99.90;;;;;;5035677;28;20049;-72
2021/12/29 13:22:35;;;;;;;23.42;9.18;;;8.50;99.90;;;;;;5032006;28;20412;-71
2021/12/29 13:25:28;;;;;;;21.35;9.43;;;8.40;99.90;;;;;;5035698;28;20056;-71
2021/12/29 13:28:39;;;;;;;15.00;9.55;;;7.80;99.90;;;;;;5035469;28;20041;-72
2021/12/29 13:31:15;;;;;;;20.67;9.98;;;8.30;99.90;;;;;;5015494;28;20128;-71
2021/12/29 13:33:55;;;;;;;21.58;9.45;;;8.90;99.90;;;;;;5001170;28;20129;-71